Kristin D — C6XA6 — position and weather

sailwx.info

Track history (hours):
 
Tides and Currents Weather Stations Pressure Air Temp Water Temp Dewpoint Dewpoint Depression Visibility Wind Speed Wind Dir Waves Ship Positions

Kristin D

Last reported at 2016-Dec-04 09:33 UTC. Time now 2016-Dec-04 14:20 UTC.
Position N 55°34' E 015°12'.

Length 90 m; draft 4.5 m.

Type: Cargo ship. MMSI: 311003700.

Date/timePositionNaut miles runAvg speedWind from/ knotsBaromVisibWave heightAir tempDewpointWater temp
2016-Dec-04 09:33N 55°34' E 015°12'6 5.6
2016-Dec-04 08:33N 55°31' E 015°03'1111.1
2016-Dec-04 07:33N 55°26' E 014°46'1111.1
2016-Dec-04 06:32N 55°18' E 014°31'1110.7
2016-Dec-04 05:33N 55°10' E 014°19'1111.1
2016-Dec-04 04:33N 55°11' E 013°59'1211.5
2016-Dec-04 03:30N 55°12' E 013°38'1211.2
2016-Dec-04 02:28N 55°13' E 013°18'1011.2
2016-Dec-04 01:33N 55°14' E 013°00'1111.0
2016-Dec-04 00:33N 55°17' E 012°42'10 9.8
2016-Dec-03 23:33N 55°27' E 012°40'10 9.8
2016-Dec-03 22:33N 55°37' E 012°42'1010.0
2016-Dec-03 21:33N 55°47' E 012°41'1110.9
2016-Dec-03 20:33N 55°58' E 012°38'9 9.5
2016-Dec-03 19:33N 56°06' E 012°32'1110.8
2016-Dec-03 18:33N 56°13' E 012°16'4510.5
2016-Dec-03 14:17N 56°54' E 011°45'811.2
2016-Dec-03 13:33N 57°02' E 011°40'1111.4
2016-Dec-03 12:33N 57°13' E 011°33'1111.3
2016-Dec-03 11:33N 57°23' E 011°27'1111.0
2016-Dec-03 10:33N 57°32' E 011°15'1110.9
2016-Dec-03 09:33N 57°39' E 010°58'1010.4
2016-Dec-03 08:33N 57°41' E 010°40'2 2.0
2016-Dec-03 07:33N 57°42' E 010°36'0 0.0
2016-Dec-03 06:33N 57°42' E 010°36'3 3.4
2016-Dec-03 05:33N 57°43' E 010°42'8 7.8
2016-Dec-03 04:33N 57°48' E 010°30'7169.0
2016-Dec-03 03:32N 57°52' E 008°17'7 7.2
2016-Dec-03 02:33N 57°53' E 008°04'3316.3
2016-Dec-03 00:32N 57°51' E 009°06'1111.3
2016-Dec-02 23:33N 57°52' E 008°45'1211.4
2016-Dec-02 22:32N 57°52' E 008°23'3030.8
2016-Dec-02 21:33N 57°55' E 007°27'11 3.8
2016-Dec-02 18:33N 57°56' E 007°05'1110.6
2016-Dec-02 17:33N 57°59' E 006°46'1110.6
2016-Dec-02 16:33N 58°04' E 006°28'1211.2
2016-Dec-02 15:28N 58°12' E 006°11'1011.4
2016-Dec-02 14:33N 58°19' E 005°57'1211.7
2016-Dec-02 13:33N 58°27' E 005°41'1211.7
2016-Dec-02 12:33N 58°37' E 005°28'1212.0
2016-Dec-02 11:33N 58°47' E 005°15'1111.3
2016-Dec-02 10:33N 58°57' E 005°04'1110.8
2016-Dec-02 09:33N 59°06' E 004°53'6059.6
2016-Dec-02 08:34N 60°05' E 004°36'8 7.6
2016-Dec-02 07:33N 60°12' E 004°35'7 6.7
2016-Dec-02 06:30N 60°19' E 004°33'7 7.2
2016-Dec-02 05:33N 60°26' E 004°31'7 7.1
2016-Dec-02 04:32N 60°33' E 004°29'7 7.1
2016-Dec-02 03:33N 60°40' E 004°28'7 6.9
2016-Dec-02 02:32N 60°47' E 004°27'7 6.9
2016-Dec-02 01:32N 60°54' E 004°26'7 7.1
2016-Dec-02 00:32N 61°01' E 004°25'7 7.2
2016-Dec-01 23:32N 61°08' E 004°25'7 7.4
2016-Dec-01 22:33N 61°16' E 004°25'7 6.8
2016-Dec-01 21:34N 61°22' E 004°25'7 6.7
2016-Dec-01 20:33N 61°29' E 004°26'7 6.8
2016-Dec-01 19:31N 61°36' E 004°26'6 6.6
2016-Dec-01 18:33N 61°42' E 004°29'375362.9
2016-Dec-01 17:32N 66°18' E 014°07'0 0.0
2016-Dec-01 16:33N 66°18' E 014°07'0 0.0
2016-Dec-01 15:33N 66°18' E 014°07'0 0.0
2016-Dec-01 14:33N 66°18' E 014°07'328331.2
2016-Dec-01 13:33N 62°24' E 005°18'9 8.9
2016-Dec-01 12:33N 62°30' E 005°31'9 9.2
2016-Dec-01 11:33N 62°38' E 005°43'9 8.7
2016-Dec-01 10:33N 62°45' E 005°54'301299.5
2016-Dec-01 09:33N 66°18' E 014°07'0 0.0
2016-Dec-01 08:33N 66°18' E 014°07'0 0.0
2016-Dec-01 07:30N 66°18' E 014°07'0 0.0
2016-Dec-01 06:33N 66°18' E 014°07'0 0.0
2016-Dec-01 05:33N 66°18' E 014°07'0 0.0
2016-Dec-01 04:32N 66°18' E 014°07'0 0.0
2016-Dec-01 03:32N 66°18' E 014°07'0 0.0
2016-Dec-01 02:33N 66°18' E 014°07'0 0.0
2016-Dec-01 01:33N 66°18' E 014°07'0 0.0
2016-Dec-01 00:33N 66°18' E 014°07'0 0.0
2016-Nov-30 23:31N 66°18' E 014°07'0 0.0
2016-Nov-30 22:30N 66°18' E 014°07'0 0.0
2016-Nov-30 21:30N 66°18' E 014°07'0 0.0
2016-Nov-30 20:33N 66°18' E 014°07'0 0.0
2016-Nov-30 19:30N 66°18' E 014°07'0 0.0
2016-Nov-30 18:30N 66°18' E 014°07'0 0.0
2016-Nov-30 17:33N 66°18' E 014°07'0 0.0
2016-Nov-30 16:32N 66°18' E 014°07'0 0.0
2016-Nov-30 15:31N 66°18' E 014°07'0 0.0
2016-Nov-30 14:32N 66°18' E 014°07'0 0.0
2016-Nov-30 13:33N 66°18' E 014°07'0 0.0
2016-Nov-30 12:30N 66°18' E 014°07'0 0.0
2016-Nov-30 11:33N 66°18' E 014°07'0 0.0
2016-Nov-30 10:31N 66°18' E 014°07'0 0.0
2016-Nov-30 09:32N 66°18' E 014°07'0 0.0
2016-Nov-30 08:33N 66°18' E 014°07'0 0.0
2016-Nov-30 07:33N 66°18' E 014°07'0 0.0
2016-Nov-30 06:32N 66°18' E 014°07'5859.8
2016-Nov-30 05:33N 66°19' E 011°42'5 5.4
2016-Nov-30 04:33N 66°18' E 011°55'6 6.2
2016-Nov-30 03:33N 66°17' E 012°10'6 6.0
2016-Nov-30 02:33N 66°15' E 012°24'6 6.1
2016-Nov-30 01:33N 66°13' E 012°39'3635.5
2016-Nov-30 00:32N 66°18' E 014°07'0 0.0
2016-Nov-29 23:33N 66°18' E 014°07'0 0.0
2016-Nov-29 22:32N 66°18' E 014°07'0 0.0
2016-Nov-29 21:30N 66°18' E 014°07'0 0.0
2016-Nov-29 20:33N 66°18' E 014°07'0 0.0
2016-Nov-29 19:33N 66°18' E 014°07'0 0.0
2016-Nov-29 18:32N 66°18' E 014°07'0 0.0
2016-Nov-29 17:32N 66°18' E 014°07'0 0.0
2016-Nov-29 16:31N 66°18' E 014°07'0 0.0
2016-Nov-29 15:32N 66°18' E 014°07'0 0.0
2016-Nov-29 14:30N 66°18' E 014°07'0 0.0
2016-Nov-29 13:33N 66°18' E 014°07'0 0.0
2016-Nov-29 12:33N 66°18' E 014°07'0 0.0
2016-Nov-29 11:33N 66°18' E 014°07'0 0.0
2016-Nov-29 10:33N 66°18' E 014°07'0 0.0
2016-Nov-29 09:33N 66°18' E 014°07'0 0.0
2016-Nov-29 08:31N 66°18' E 014°07'0 0.0
2016-Nov-29 07:31N 66°18' E 014°07'0 0.0
2016-Nov-29 06:33N 66°18' E 014°07'0 0.0
2016-Nov-29 05:32N 66°18' E 014°07'0 0.0
2016-Nov-29 04:30N 66°18' E 014°07'0 0.0
2016-Nov-29 03:30N 66°18' E 014°07'0 0.0
2016-Nov-29 02:30N 66°18' E 014°07'0 0.0
2016-Nov-29 01:31N 66°18' E 014°07'0 0.0
2016-Nov-29 00:33N 66°18' E 014°07'0 0.0
2016-Nov-28 23:32N 66°18' E 014°07'0 0.0
2016-Nov-28 22:33N 66°18' E 014°07'0 0.0
2016-Nov-28 21:32N 66°18' E 014°07'0 0.0
2016-Nov-28 20:33N 66°18' E 014°07'0 0.0
2016-Nov-28 19:32N 66°18' E 014°07'0 0.0
2016-Nov-28 18:33N 66°18' E 014°07'0 0.0
2016-Nov-28 17:34N 66°18' E 014°07'0 0.0
2016-Nov-28 16:33N 66°18' E 014°07'0 0.0
2016-Nov-28 15:31N 66°18' E 014°07'0 0.0
2016-Nov-28 14:33N 66°18' E 014°07'0 0.0
2016-Nov-28 13:31N 66°18' E 014°07'0 0.0
2016-Nov-28 12:31N 66°18' E 014°07'0 0.0
2016-Nov-28 11:32N 66°18' E 014°07'0 0.0
2016-Nov-28 10:33N 66°18' E 014°07'0 0.0
2016-Nov-28 09:33N 66°18' E 014°07'0 0.0
2016-Nov-28 08:32N 66°18' E 014°07'0 0.0
2016-Nov-28 07:32N 66°18' E 014°07'0 0.0
2016-Nov-28 06:30N 66°18' E 014°07'0 0.0
2016-Nov-28 05:31N 66°18' E 014°07'0 0.0
2016-Nov-28 04:30N 66°18' E 014°07'0 0.0
2016-Nov-28 03:33N 66°18' E 014°07'0 0.0
2016-Nov-28 02:31N 66°18' E 014°07'0 0.0
2016-Nov-28 01:33N 66°18' E 014°07'0 0.0
2016-Nov-28 00:33N 66°18' E 014°07'0 0.0
2016-Nov-27 23:33N 66°18' E 014°07'0 0.0
2016-Nov-27 22:31N 66°18' E 014°07'0 0.0
2016-Nov-27 21:33N 66°18' E 014°07'0 0.0
2016-Nov-27 20:32N 66°18' E 014°07'0 0.0
2016-Nov-27 19:32N 66°18' E 014°07'0 0.0
2016-Nov-27 18:30N 66°18' E 014°07'0 0.0
2016-Nov-27 17:31N 66°18' E 014°07'0 0.0
2016-Nov-27 16:33N 66°18' E 014°07'0 0.0
2016-Nov-27 15:31N 66°18' E 014°07'0 0.0
2016-Nov-27 14:32N 66°18' E 014°07'0 0.0
2016-Nov-27 13:34N 66°18' E 014°07'0 0.0
2016-Nov-27 12:33N 66°18' E 014°07'0 0.0
2016-Nov-27 11:33N 66°18' E 014°07'0 0.0
2016-Nov-27 10:31N 66°18' E 014°07'0 0.0
2016-Nov-27 09:32N 66°18' E 014°07'0 0.0
2016-Nov-27 08:33N 66°18' E 014°07'0 0.0
2016-Nov-27 07:32N 66°18' E 014°07'0 0.0
2016-Nov-27 06:30N 66°18' E 014°07'0 0.0
2016-Nov-27 05:33N 66°18' E 014°07'0 0.0
2016-Nov-27 04:29N 66°18' E 014°07'0 0.0
2016-Nov-27 03:30N 66°18' E 014°07'0 0.0
2016-Nov-27 02:33N 66°18' E 014°07'0 0.0
2016-Nov-27 01:33N 66°18' E 014°07'0 0.0
2016-Nov-27 00:31N 66°18' E 014°07'0 0.0
2016-Nov-26 23:30N 66°18' E 014°07'0 0.0
2016-Nov-26 22:27N 66°18' E 014°07'0 0.0
2016-Nov-26 21:26N 66°18' E 014°07'0 0.0
2016-Nov-26 20:33N 66°18' E 014°07'0 0.0
2016-Nov-26 19:32N 66°18' E 014°07'0 0.0
2016-Nov-26 18:33N 66°18' E 014°07'0 0.0
2016-Nov-26 17:33N 66°18' E 014°07'0 0.0
2016-Nov-26 16:32N 66°18' E 014°07'0 0.0
2016-Nov-26 15:32N 66°18' E 014°07'1 0.5
2016-Nov-26 14:32N 66°19' E 014°07'0 0.3
2016-Nov-26 13:32N 66°19' E 014°07'0 0.0
2016-Nov-26 12:31N 66°19' E 014°07'0 0.0
2016-Nov-26 11:32N 66°19' E 014°07'0 0.0
2016-Nov-26 10:31N 66°19' E 014°07'0 0.0
2016-Nov-26 09:33N 66°19' E 014°07'0 0.0
2016-Nov-26 08:33N 66°19' E 014°07'0 0.0
2016-Nov-26 07:32N 66°19' E 014°07'0 0.0
2016-Nov-26 06:33N 66°19' E 014°07'0 0.0
2016-Nov-26 05:32N 66°19' E 014°07'0 0.0
2016-Nov-26 04:31N 66°19' E 014°07'0 0.0
2016-Nov-26 03:33N 66°19' E 014°07'0 0.0
2016-Nov-26 02:33N 66°19' E 014°07'0 0.0
2016-Nov-26 01:31N 66°19' E 014°07'0 0.0
2016-Nov-26 00:33N 66°19' E 014°07'0 0.0
2016-Nov-25 23:33N 66°19' E 014°07'0 0.0
2016-Nov-25 22:33N 66°19' E 014°07'0 0.4
2016-Nov-25 21:33N 66°19' E 014°06'4 4.1
2016-Nov-25 20:33N 66°17' E 013°58'9 8.4
2016-Nov-25 19:32N 66°14' E 013°37'1111.0
2016-Nov-25 18:31N 66°11' E 013°10'13 6.7
2016-Nov-25 16:33N 66°14' E 012°38'2 0.1
2016-Nov-24 21:33N 66°13' E 012°41'4 3.8
2016-Nov-24 20:33N 66°15' E 012°34'3 3.3
2016-Nov-24 19:33N 66°15' E 012°26'6 5.5
2016-Nov-24 18:33N 66°17' E 012°14'8 8.1
2016-Nov-24 17:33N 66°22' E 011°58'1110.6
2016-Nov-24 16:33N 66°33' E 011°52'1110.9
2016-Nov-24 15:33N 66°43' E 012°04'5012.2
2016-Nov-24 11:27N 67°21' E 013°25'  
Track history (hours):
 
Tides and Currents Weather Stations Pressure Air Temp Water Temp Dewpoint Dewpoint Depression Visibility Wind Speed Wind Dir Waves Ship Positions

Kristin D

Last reported at 2016-Dec-04 09:33 UTC. Time now 2016-Dec-04 14:20 UTC.
Position N 55°34' E 015°12'.

Length 90 m; draft 4.5 m.

Type: Cargo ship. MMSI: 311003700.

Date/timePositionNaut miles runAvg speedWind from/ knotsBaromVisibWave heightAir tempDewpointWater temp
2016-Dec-04 09:33N 55°34' E 015°12'6 5.6
2016-Dec-04 08:33N 55°31' E 015°03'1111.1
2016-Dec-04 07:33N 55°26' E 014°46'1111.1
2016-Dec-04 06:32N 55°18' E 014°31'1110.7
2016-Dec-04 05:33N 55°10' E 014°19'1111.1
2016-Dec-04 04:33N 55°11' E 013°59'1211.5
2016-Dec-04 03:30N 55°12' E 013°38'1211.2
2016-Dec-04 02:28N 55°13' E 013°18'1011.2
2016-Dec-04 01:33N 55°14' E 013°00'1111.0
2016-Dec-04 00:33N 55°17' E 012°42'10 9.8
2016-Dec-03 23:33N 55°27' E 012°40'10 9.8
2016-Dec-03 22:33N 55°37' E 012°42'1010.0
2016-Dec-03 21:33N 55°47' E 012°41'1110.9
2016-Dec-03 20:33N 55°58' E 012°38'9 9.5
2016-Dec-03 19:33N 56°06' E 012°32'1110.8
2016-Dec-03 18:33N 56°13' E 012°16'4510.5
2016-Dec-03 14:17N 56°54' E 011°45'811.2
2016-Dec-03 13:33N 57°02' E 011°40'1111.4
2016-Dec-03 12:33N 57°13' E 011°33'1111.3
2016-Dec-03 11:33N 57°23' E 011°27'1111.0
2016-Dec-03 10:33N 57°32' E 011°15'1110.9
2016-Dec-03 09:33N 57°39' E 010°58'1010.4
2016-Dec-03 08:33N 57°41' E 010°40'2 2.0
2016-Dec-03 07:33N 57°42' E 010°36'0 0.0
2016-Dec-03 06:33N 57°42' E 010°36'3 3.4
2016-Dec-03 05:33N 57°43' E 010°42'8 7.8
2016-Dec-03 04:33N 57°48' E 010°30'7169.0
2016-Dec-03 03:32N 57°52' E 008°17'7 7.2
2016-Dec-03 02:33N 57°53' E 008°04'3316.3
2016-Dec-03 00:32N 57°51' E 009°06'1111.3
2016-Dec-02 23:33N 57°52' E 008°45'1211.4
2016-Dec-02 22:32N 57°52' E 008°23'3030.8
2016-Dec-02 21:33N 57°55' E 007°27'11 3.8
2016-Dec-02 18:33N 57°56' E 007°05'1110.6
2016-Dec-02 17:33N 57°59' E 006°46'1110.6
2016-Dec-02 16:33N 58°04' E 006°28'1211.2
2016-Dec-02 15:28N 58°12' E 006°11'1011.4
2016-Dec-02 14:33N 58°19' E 005°57'1211.7
2016-Dec-02 13:33N 58°27' E 005°41'1211.7
2016-Dec-02 12:33N 58°37' E 005°28'1212.0
2016-Dec-02 11:33N 58°47' E 005°15'1111.3
2016-Dec-02 10:33N 58°57' E 005°04'1110.8
2016-Dec-02 09:33N 59°06' E 004°53'6059.6
2016-Dec-02 08:34N 60°05' E 004°36'8 7.6
2016-Dec-02 07:33N 60°12' E 004°35'7 6.7
2016-Dec-02 06:30N 60°19' E 004°33'7 7.2
2016-Dec-02 05:33N 60°26' E 004°31'7 7.1
2016-Dec-02 04:32N 60°33' E 004°29'7 7.1
2016-Dec-02 03:33N 60°40' E 004°28'7 6.9
2016-Dec-02 02:32N 60°47' E 004°27'7 6.9
2016-Dec-02 01:32N 60°54' E 004°26'7 7.1
2016-Dec-02 00:32N 61°01' E 004°25'7 7.2
2016-Dec-01 23:32N 61°08' E 004°25'7 7.4
2016-Dec-01 22:33N 61°16' E 004°25'7 6.8
2016-Dec-01 21:34N 61°22' E 004°25'7 6.7
2016-Dec-01 20:33N 61°29' E 004°26'7 6.8
2016-Dec-01 19:31N 61°36' E 004°26'6 6.6
2016-Dec-01 18:33N 61°42' E 004°29'375362.9
2016-Dec-01 17:32N 66°18' E 014°07'0 0.0
2016-Dec-01 16:33N 66°18' E 014°07'0 0.0
2016-Dec-01 15:33N 66°18' E 014°07'0 0.0
2016-Dec-01 14:33N 66°18' E 014°07'328331.2
2016-Dec-01 13:33N 62°24' E 005°18'9 8.9
2016-Dec-01 12:33N 62°30' E 005°31'9 9.2
2016-Dec-01 11:33N 62°38' E 005°43'9 8.7
2016-Dec-01 10:33N 62°45' E 005°54'301299.5
2016-Dec-01 09:33N 66°18' E 014°07'0 0.0
2016-Dec-01 08:33N 66°18' E 014°07'0 0.0
2016-Dec-01 07:30N 66°18' E 014°07'0 0.0
2016-Dec-01 06:33N 66°18' E 014°07'0 0.0
2016-Dec-01 05:33N 66°18' E 014°07'0 0.0
2016-Dec-01 04:32N 66°18' E 014°07'0 0.0
2016-Dec-01 03:32N 66°18' E 014°07'0 0.0
2016-Dec-01 02:33N 66°18' E 014°07'0 0.0
2016-Dec-01 01:33N 66°18' E 014°07'0 0.0
2016-Dec-01 00:33N 66°18' E 014°07'0 0.0
2016-Nov-30 23:31N 66°18' E 014°07'0 0.0
2016-Nov-30 22:30N 66°18' E 014°07'0 0.0
2016-Nov-30 21:30N 66°18' E 014°07'0 0.0
2016-Nov-30 20:33N 66°18' E 014°07'0 0.0
2016-Nov-30 19:30N 66°18' E 014°07'0 0.0
2016-Nov-30 18:30N 66°18' E 014°07'0 0.0
2016-Nov-30 17:33N 66°18' E 014°07'0 0.0
2016-Nov-30 16:32N 66°18' E 014°07'0 0.0
2016-Nov-30 15:31N 66°18' E 014°07'0 0.0
2016-Nov-30 14:32N 66°18' E 014°07'0 0.0
2016-Nov-30 13:33N 66°18' E 014°07'0 0.0
2016-Nov-30 12:30N 66°18' E 014°07'0 0.0
2016-Nov-30 11:33N 66°18' E 014°07'0 0.0
2016-Nov-30 10:31N 66°18' E 014°07'0 0.0
2016-Nov-30 09:32N 66°18' E 014°07'0 0.0
2016-Nov-30 08:33N 66°18' E 014°07'0 0.0
2016-Nov-30 07:33N 66°18' E 014°07'0 0.0
2016-Nov-30 06:32N 66°18' E 014°07'5859.8
2016-Nov-30 05:33N 66°19' E 011°42'5 5.4
2016-Nov-30 04:33N 66°18' E 011°55'6 6.2
2016-Nov-30 03:33N 66°17' E 012°10'6 6.0
2016-Nov-30 02:33N 66°15' E 012°24'6 6.1
2016-Nov-30 01:33N 66°13' E 012°39'3635.5
2016-Nov-30 00:32N 66°18' E 014°07'0 0.0
2016-Nov-29 23:33N 66°18' E 014°07'0 0.0
2016-Nov-29 22:32N 66°18' E 014°07'0 0.0
2016-Nov-29 21:30N 66°18' E 014°07'0 0.0
2016-Nov-29 20:33N 66°18' E 014°07'0 0.0
2016-Nov-29 19:33N 66°18' E 014°07'0 0.0
2016-Nov-29 18:32N 66°18' E 014°07'0 0.0
2016-Nov-29 17:32N 66°18' E 014°07'0 0.0
2016-Nov-29 16:31N 66°18' E 014°07'0 0.0
2016-Nov-29 15:32N 66°18' E 014°07'0 0.0
2016-Nov-29 14:30N 66°18' E 014°07'0 0.0
2016-Nov-29 13:33N 66°18' E 014°07'0 0.0
2016-Nov-29 12:33N 66°18' E 014°07'0 0.0
2016-Nov-29 11:33N 66°18' E 014°07'0 0.0
2016-Nov-29 10:33N 66°18' E 014°07'0 0.0
2016-Nov-29 09:33N 66°18' E 014°07'0 0.0
2016-Nov-29 08:31N 66°18' E 014°07'0 0.0
2016-Nov-29 07:31N 66°18' E 014°07'0 0.0
2016-Nov-29 06:33N 66°18' E 014°07'0 0.0
2016-Nov-29 05:32N 66°18' E 014°07'0 0.0
2016-Nov-29 04:30N 66°18' E 014°07'0 0.0
2016-Nov-29 03:30N 66°18' E 014°07'0 0.0
2016-Nov-29 02:30N 66°18' E 014°07'0 0.0
2016-Nov-29 01:31N 66°18' E 014°07'0 0.0
2016-Nov-29 00:33N 66°18' E 014°07'0 0.0
2016-Nov-28 23:32N 66°18' E 014°07'0 0.0
2016-Nov-28 22:33N 66°18' E 014°07'0 0.0
2016-Nov-28 21:32N 66°18' E 014°07'0 0.0
2016-Nov-28 20:33N 66°18' E 014°07'0 0.0
2016-Nov-28 19:32N 66°18' E 014°07'0 0.0
2016-Nov-28 18:33N 66°18' E 014°07'0 0.0
2016-Nov-28 17:34N 66°18' E 014°07'0 0.0
2016-Nov-28 16:33N 66°18' E 014°07'0 0.0
2016-Nov-28 15:31N 66°18' E 014°07'0 0.0
2016-Nov-28 14:33N 66°18' E 014°07'0 0.0
2016-Nov-28 13:31N 66°18' E 014°07'0 0.0
2016-Nov-28 12:31N 66°18' E 014°07'0 0.0
2016-Nov-28 11:32N 66°18' E 014°07'0 0.0
2016-Nov-28 10:33N 66°18' E 014°07'0 0.0
2016-Nov-28 09:33N 66°18' E 014°07'0 0.0
2016-Nov-28 08:32N 66°18' E 014°07'0 0.0
2016-Nov-28 07:32N 66°18' E 014°07'0 0.0
2016-Nov-28 06:30N 66°18' E 014°07'0 0.0
2016-Nov-28 05:31N 66°18' E 014°07'0 0.0
2016-Nov-28 04:30N 66°18' E 014°07'0 0.0
2016-Nov-28 03:33N 66°18' E 014°07'0 0.0
2016-Nov-28 02:31N 66°18' E 014°07'0 0.0
2016-Nov-28 01:33N 66°18' E 014°07'0 0.0
2016-Nov-28 00:33N 66°18' E 014°07'0 0.0
2016-Nov-27 23:33N 66°18' E 014°07'0 0.0
2016-Nov-27 22:31N 66°18' E 014°07'0 0.0
2016-Nov-27 21:33N 66°18' E 014°07'0 0.0
2016-Nov-27 20:32N 66°18' E 014°07'0 0.0
2016-Nov-27 19:32N 66°18' E 014°07'0 0.0
2016-Nov-27 18:30N 66°18' E 014°07'0 0.0
2016-Nov-27 17:31N 66°18' E 014°07'0 0.0
2016-Nov-27 16:33N 66°18' E 014°07'0 0.0
2016-Nov-27 15:31N 66°18' E 014°07'0 0.0
2016-Nov-27 14:32N 66°18' E 014°07'0 0.0
2016-Nov-27 13:34N 66°18' E 014°07'0 0.0
2016-Nov-27 12:33N 66°18' E 014°07'0 0.0
2016-Nov-27 11:33N 66°18' E 014°07'0 0.0
2016-Nov-27 10:31N 66°18' E 014°07'0 0.0
2016-Nov-27 09:32N 66°18' E 014°07'0 0.0
2016-Nov-27 08:33N 66°18' E 014°07'0 0.0
2016-Nov-27 07:32N 66°18' E 014°07'0 0.0
2016-Nov-27 06:30N 66°18' E 014°07'0 0.0
2016-Nov-27 05:33N 66°18' E 014°07'0 0.0
2016-Nov-27 04:29N 66°18' E 014°07'0 0.0
2016-Nov-27 03:30N 66°18' E 014°07'0 0.0
2016-Nov-27 02:33N 66°18' E 014°07'0 0.0
2016-Nov-27 01:33N 66°18' E 014°07'0 0.0
2016-Nov-27 00:31N 66°18' E 014°07'0 0.0
2016-Nov-26 23:30N 66°18' E 014°07'0 0.0
2016-Nov-26 22:27N 66°18' E 014°07'0 0.0
2016-Nov-26 21:26N 66°18' E 014°07'0 0.0
2016-Nov-26 20:33N 66°18' E 014°07'0 0.0
2016-Nov-26 19:32N 66°18' E 014°07'0 0.0
2016-Nov-26 18:33N 66°18' E 014°07'0 0.0
2016-Nov-26 17:33N 66°18' E 014°07'0 0.0
2016-Nov-26 16:32N 66°18' E 014°07'0 0.0
2016-Nov-26 15:32N 66°18' E 014°07'1 0.5
2016-Nov-26 14:32N 66°19' E 014°07'0 0.3
2016-Nov-26 13:32N 66°19' E 014°07'0 0.0
2016-Nov-26 12:31N 66°19' E 014°07'0 0.0
2016-Nov-26 11:32N 66°19' E 014°07'0 0.0
2016-Nov-26 10:31N 66°19' E 014°07'0 0.0
2016-Nov-26 09:33N 66°19' E 014°07'0 0.0
2016-Nov-26 08:33N 66°19' E 014°07'0 0.0
2016-Nov-26 07:32N 66°19' E 014°07'0 0.0
2016-Nov-26 06:33N 66°19' E 014°07'0 0.0
2016-Nov-26 05:32N 66°19' E 014°07'0 0.0
2016-Nov-26 04:31N 66°19' E 014°07'0 0.0
2016-Nov-26 03:33N 66°19' E 014°07'0 0.0
2016-Nov-26 02:33N 66°19' E 014°07'0 0.0
2016-Nov-26 01:31N 66°19' E 014°07'0 0.0
2016-Nov-26 00:33N 66°19' E 014°07'0 0.0
2016-Nov-25 23:33N 66°19' E 014°07'0 0.0
2016-Nov-25 22:33N 66°19' E 014°07'0 0.4
2016-Nov-25 21:33N 66°19' E 014°06'4 4.1
2016-Nov-25 20:33N 66°17' E 013°58'9 8.4
2016-Nov-25 19:32N 66°14' E 013°37'1111.0
2016-Nov-25 18:31N 66°11' E 013°10'13 6.7
2016-Nov-25 16:33N 66°14' E 012°38'2 0.1
2016-Nov-24 21:33N 66°13' E 012°41'4 3.8
2016-Nov-24 20:33N 66°15' E 012°34'3 3.3
2016-Nov-24 19:33N 66°15' E 012°26'6 5.5
2016-Nov-24 18:33N 66°17' E 012°14'8 8.1
2016-Nov-24 17:33N 66°22' E 011°58'1110.6
2016-Nov-24 16:33N 66°33' E 011°52'1110.9
2016-Nov-24 15:33N 66°43' E 012°04'5012.2
2016-Nov-24 11:27N 67°21' E 013°25'  

Dump ship's entire track history